Time;durP1;ratioP1;P1;durP2;ratioP2;P2;SDS_P1;SDS_P2;PMS_P1;PMS_P2;Temp;Humidity;BMP_temperature;BMP_pressure;BME280_temperature;BME280_humidity;BME280_pressure;Samples;Min_cycle;Max_cycle;Signal;HPM_P1;HPM_P2
2022/07/12 00:02:24;;;;;;;2.07;1.97;;;18.20;99.90;;;;;;6053268;23;20549;-75
2022/07/12 00:04:51;;;;;;;2.00;1.90;;;18.10;99.90;;;;;;6059918;23;20437;-76
2022/07/12 00:07:18;;;;;;;2.27;2.17;;;18.10;99.90;;;;;;6067203;23;20793;-75
2022/07/12 00:09:45;;;;;;;2.07;1.97;;;18.10;99.90;;;;;;6056007;23;21054;-75
2022/07/12 00:12:13;;;;;;;2.13;2.03;;;18.10;99.90;;;;;;6058643;23;20445;-75
2022/07/12 00:14:40;;;;;;;2.13;2.03;;;18.00;99.90;;;;;;6055828;23;20780;-76
2022/07/12 00:17:09;;;;;;;2.00;1.90;;;18.00;99.90;;;;;;6074132;23;20439;-75
2022/07/12 00:19:37;;;;;;;2.50;2.33;;;18.00;99.90;;;;;;6061695;23;20485;-76
2022/07/12 00:22:05;;;;;;;2.93;2.17;;;18.00;99.90;;;;;;6044790;23;20457;-75
2022/07/12 00:24:32;;;;;;;1.80;1.70;;;18.00;99.90;;;;;;6051773;23;20470;-75
2022/07/12 00:26:59;;;;;;;2.30;2.20;;;18.00;99.90;;;;;;6079472;23;20442;-75
2022/07/12 00:29:26;;;;;;;2.10;2.00;;;18.00;99.90;;;;;;6060799;23;20438;-75
2022/07/12 00:31:53;;;;;;;1.90;1.80;;;17.90;99.90;;;;;;6063014;23;20994;-75
2022/07/12 00:34:22;;;;;;;1.93;1.83;;;17.90;99.90;;;;;;6056320;23;20444;-75
2022/07/12 00:36:48;;;;;;;2.10;2.00;;;17.90;99.90;;;;;;6059185;23;20929;-75
2022/07/12 00:39:16;;;;;;;1.90;1.80;;;17.90;99.90;;;;;;6060119;23;20477;-75
2022/07/12 00:41:43;;;;;;;2.00;1.90;;;17.90;99.90;;;;;;6064037;23;20450;-75
2022/07/12 00:44:10;;;;;;;2.20;2.00;;;17.90;99.90;;;;;;6071527;23;20527;-75
2022/07/12 00:46:37;;;;;;;2.00;1.87;;;17.90;99.90;;;;;;6086717;23;20439;-75
2022/07/12 00:49:05;;;;;;;2.00;1.90;;;17.90;99.90;;;;;;6069560;23;20437;-76
2022/07/12 00:51:34;;;;;;;2.23;2.13;;;17.90;99.90;;;;;;6059733;23;20549;-75
2022/07/12 00:54:02;;;;;;;2.00;1.90;;;17.90;99.90;;;;;;6059742;23;20468;-75
2022/07/12 00:56:29;;;;;;;2.03;1.93;;;17.90;99.90;;;;;;6060864;23;20472;-75
2022/07/12 00:58:56;;;;;;;2.00;1.80;;;17.80;99.90;;;;;;6071880;23;20474;-76
2022/07/12 01:01:23;;;;;;;2.03;1.93;;;17.80;99.90;;;;;;6065888;23;20449;-75
2022/07/12 01:03:51;;;;;;;2.10;2.00;;;17.80;99.90;;;;;;6052685;23;20440;-75
2022/07/12 01:06:20;;;;;;;2.50;2.30;;;17.80;99.90;;;;;;6065010;23;20449;-76
2022/07/12 01:08:49;;;;;;;2.17;2.07;;;17.80;99.90;;;;;;6060046;23;20958;-75
2022/07/12 01:11:17;;;;;;;2.20;2.00;;;17.80;99.90;;;;;;6052040;23;20471;-76
2022/07/12 01:13:45;;;;;;;2.43;1.87;;;17.90;99.90;;;;;;6053094;23;20447;-75
2022/07/12 01:16:14;;;;;;;2.00;1.90;;;17.90;99.90;;;;;;6053729;23;20452;-76
2022/07/12 01:18:41;;;;;;;2.03;1.83;;;18.00;99.90;;;;;;6072583;23;20876;-75
2022/07/12 01:21:10;;;;;;;2.17;1.90;;;18.00;99.90;;;;;;6082804;23;20467;-75
2022/07/12 01:23:41;;;;;;;2.10;2.00;;;18.00;99.90;;;;;;6073582;23;20438;-75
2022/07/12 01:26:08;;;;;;;2.10;2.00;;;18.00;99.90;;;;;;6067314;23;20439;-75
2022/07/12 01:28:35;;;;;;;2.13;2.03;;;17.90;99.90;;;;;;6059620;23;20813;-75
2022/07/12 01:31:02;;;;;;;2.00;1.90;;;17.80;99.90;;;;;;6055595;23;20461;-75
2022/07/12 01:33:30;;;;;;;2.90;2.27;;;17.80;99.90;;;;;;6064543;23;20525;-75
2022/07/12 01:35:58;;;;;;;2.20;2.10;;;17.80;99.90;;;;;;6054617;23;20867;-75
2022/07/12 01:38:25;;;;;;;1.90;1.80;;;17.70;99.90;;;;;;6056732;23;20447;-75
2022/07/12 01:40:53;;;;;;;2.50;2.30;;;17.70;99.90;;;;;;6062061;23;20463;-75
2022/07/12 01:43:20;;;;;;;1.80;1.70;;;17.70;99.90;;;;;;6059885;23;20442;-75
2022/07/12 01:45:47;;;;;;;1.70;1.60;;;17.70;99.90;;;;;;6059174;23;20763;-75
2022/07/12 01:48:14;;;;;;;2.03;1.90;;;17.70;99.90;;;;;;6066038;23;20437;-75
2022/07/12 01:50:43;;;;;;;2.10;2.00;;;17.70;99.90;;;;;;6061770;23;20466;-75
2022/07/12 01:53:11;;;;;;;1.97;1.80;;;17.70;99.90;;;;;;6066435;23;20446;-75
2022/07/12 01:55:38;;;;;;;2.60;2.40;;;17.60;99.90;;;;;;6071702;23;20509;-75
2022/07/12 01:58:07;;;;;;;1.90;1.80;;;17.60;99.90;;;;;;6067196;23;20444;-75
2022/07/12 02:00:34;;;;;;;2.10;2.00;;;17.60;99.90;;;;;;6054269;23;20481;-75
2022/07/12 02:03:01;;;;;;;2.30;2.20;;;17.60;99.90;;;;;;6058039;23;20438;-75
2022/07/12 02:05:30;;;;;;;2.00;1.90;;;17.50;99.90;;;;;;6063046;23;20448;-75
2022/07/12 02:07:58;;;;;;;2.20;2.00;;;17.50;99.90;;;;;;6068810;23;20438;-75
2022/07/12 02:10:25;;;;;;;2.10;2.00;;;17.50;99.90;;;;;;6061133;23;20473;-75
2022/07/12 02:12:52;;;;;;;2.13;2.03;;;17.50;99.90;;;;;;6057546;23;20442;-75
2022/07/12 02:15:21;;;;;;;2.13;2.03;;;17.50;99.90;;;;;;6044766;23;20434;-75
2022/07/12 02:17:48;;;;;;;2.70;2.50;;;17.40;99.90;;;;;;6059327;23;20442;-75
2022/07/12 02:20:15;;;;;;;2.50;2.40;;;17.40;99.90;;;;;;6060737;23;20482;-75
2022/07/12 02:22:43;;;;;;;2.30;2.10;;;17.30;99.90;;;;;;6061983;23;20552;-75
2022/07/12 02:25:10;;;;;;;2.23;2.13;;;17.30;99.90;;;;;;6062981;23;20514;-75
2022/07/12 02:27:38;;;;;;;2.60;2.40;;;17.30;99.90;;;;;;6062893;23;20506;-75
2022/07/12 02:30:07;;;;;;;2.50;2.30;;;17.30;99.90;;;;;;6062520;23;20462;-75
2022/07/12 02:32:35;;;;;;;2.10;2.00;;;17.20;99.90;;;;;;6062580;23;20446;-75
2022/07/12 02:35:02;;;;;;;2.37;2.27;;;17.20;99.90;;;;;;6062762;23;21067;-75
2022/07/12 02:37:29;;;;;;;2.30;2.20;;;17.20;99.90;;;;;;6061951;23;20937;-75
2022/07/12 02:40:52;;;;;;;2.47;2.30;;;17.10;99.90;;;;;;6062890;23;20470;-75
2022/07/12 02:42:43;;;;;;;2.30;2.10;;;17.10;99.90;;;;;;6061817;23;20792;-75
2022/07/12 02:45:11;;;;;;;2.23;2.10;;;17.00;99.90;;;;;;6062403;23;20433;-75
2022/07/12 02:47:40;;;;;;;2.50;2.30;;;17.00;99.90;;;;;;6063035;23;20430;-75
2022/07/12 02:50:08;;;;;;;2.70;2.50;;;17.00;99.90;;;;;;6062642;23;20802;-75
2022/07/12 02:52:36;;;;;;;2.27;2.07;;;17.00;99.90;;;;;;6061733;23;21304;-75
2022/07/12 02:55:03;;;;;;;2.27;2.17;;;16.90;99.90;;;;;;6067986;23;20434;-75
2022/07/12 02:57:30;;;;;;;2.60;2.40;;;16.90;99.90;;;;;;6065116;23;20426;-75
2022/07/12 02:59:57;;;;;;;2.47;2.27;;;16.90;99.90;;;;;;6062891;23;20545;-75
2022/07/12 03:02:24;;;;;;;2.27;2.17;;;16.90;99.90;;;;;;6062435;23;20430;-76
2022/07/12 03:04:53;;;;;;;3.10;2.53;;;16.90;99.90;;;;;;6062909;23;20440;-76
2022/07/12 03:07:20;;;;;;;2.27;2.17;;;16.80;99.90;;;;;;6062580;23;20449;-75
2022/07/12 03:09:47;;;;;;;2.70;2.50;;;16.80;99.90;;;;;;6061949;23;20453;-75
2022/07/12 03:12:14;;;;;;;2.40;2.20;;;16.80;99.90;;;;;;6062344;23;20434;-76
2022/07/12 03:14:41;;;;;;;2.30;2.20;;;16.80;99.90;;;;;;6061674;23;20452;-75
2022/07/12 03:17:09;;;;;;;2.33;2.13;;;16.70;99.90;;;;;;6060108;23;20924;-75
2022/07/12 03:19:36;;;;;;;2.43;2.30;;;16.70;99.90;;;;;;6073862;23;20965;-75
2022/07/12 03:22:05;;;;;;;2.40;2.30;;;16.70;99.90;;;;;;6053134;23;20456;-76
2022/07/12 03:24:32;;;;;;;2.30;2.20;;;16.70;99.90;;;;;;6052474;23;20878;-75
2022/07/12 03:26:59;;;;;;;2.57;2.37;;;16.70;99.90;;;;;;6064865;23;20794;-75
2022/07/12 03:29:26;;;;;;;2.50;2.30;;;16.70;99.90;;;;;;6057659;23;20470;-75
2022/07/12 03:31:52;;;;;;;2.40;2.30;;;16.70;99.90;;;;;;6058406;23;20523;-76
2022/07/12 03:34:20;;;;;;;2.80;2.60;;;16.70;99.90;;;;;;6055694;23;20494;-75
2022/07/12 03:36:46;;;;;;;3.33;3.10;;;16.70;99.90;;;;;;6077721;23;20479;-75
2022/07/12 03:39:15;;;;;;;3.10;2.73;;;16.70;99.90;;;;;;6076844;23;20543;-76
2022/07/12 03:41:42;;;;;;;3.13;2.93;;;16.70;99.90;;;;;;6063444;23;20488;-75
2022/07/12 03:44:09;;;;;;;3.33;2.70;;;16.70;99.90;;;;;;6048783;23;20445;-75
2022/07/12 03:46:36;;;;;;;3.00;2.80;;;16.70;99.90;;;;;;6060194;23;20456;-75
2022/07/12 03:49:04;;;;;;;3.07;2.87;;;16.70;99.90;;;;;;6058028;23;20933;-75
2022/07/12 03:51:30;;;;;;;3.00;2.80;;;16.80;99.90;;;;;;6052237;23;20951;-76
2022/07/12 03:53:57;;;;;;;3.10;2.80;;;16.80;99.90;;;;;;6051422;23;20434;-76
2022/07/12 03:59:11;;;;;;;2.80;2.60;;;16.80;99.90;;;;;;6061372;23;20882;-75
2022/07/12 04:01:38;;;;;;;2.77;2.57;;;16.90;99.90;;;;;;6060664;23;20434;-75
2022/07/12 04:04:05;;;;;;;3.27;2.93;;;16.90;99.90;;;;;;6058961;23;20517;-76
2022/07/12 04:06:32;;;;;;;2.80;2.60;;;17.00;99.90;;;;;;6081724;23;20999;-76
2022/07/12 04:08:59;;;;;;;2.20;2.10;;;17.00;99.90;;;;;;6071622;23;20449;-75
2022/07/12 04:11:27;;;;;;;2.80;2.60;;;17.10;99.90;;;;;;6081114;23;20499;-75
2022/07/12 04:13:54;;;;;;;3.17;2.90;;;17.10;99.90;;;;;;6070121;23;20452;-75
2022/07/12 04:16:21;;;;;;;3.40;3.10;;;17.20;99.90;;;;;;6057201;23;20472;-75
2022/07/12 04:18:48;;;;;;;2.80;2.60;;;17.30;99.90;;;;;;6064116;23;20441;-76
2022/07/12 04:21:15;;;;;;;2.80;2.60;;;17.30;99.90;;;;;;6067782;23;20508;-75
2022/07/12 04:23:43;;;;;;;3.10;2.70;;;17.40;99.90;;;;;;6055264;23;20437;-74
2022/07/12 04:26:10;;;;;;;2.57;2.37;;;17.40;99.90;;;;;;6044692;23;20434;-74
2022/07/12 04:28:39;;;;;;;2.63;2.43;;;17.40;99.90;;;;;;6045915;23;20447;-73
2022/07/12 04:31:06;;;;;;;2.47;2.27;;;17.50;99.90;;;;;;6052187;23;20438;-74
2022/07/12 04:33:33;;;;;;;3.20;2.90;;;17.50;99.90;;;;;;6049186;23;20456;-73
2022/07/12 04:36:00;;;;;;;2.67;2.47;;;17.50;99.90;;;;;;6066198;23;20438;-73
2022/07/12 04:38:27;;;;;;;3.90;2.43;;;17.60;99.90;;;;;;6055271;23;20590;-74
2022/07/12 04:40:54;;;;;;;2.70;2.50;;;17.70;99.90;;;;;;6055005;23;20500;-74
2022/07/12 04:43:24;;;;;;;2.60;2.50;;;17.80;99.90;;;;;;6058113;23;20446;-74
2022/07/12 04:45:52;;;;;;;2.83;2.63;;;17.80;99.90;;;;;;6058629;23;20445;-74
2022/07/12 04:48:19;;;;;;;4.10;3.73;;;17.80;99.90;;;;;;6061477;23;20460;-73
2022/07/12 04:50:46;;;;;;;3.00;2.77;;;17.90;99.90;;;;;;6064556;23;20460;-74
2022/07/12 04:53:13;;;;;;;3.20;2.90;;;17.90;99.90;;;;;;6074394;23;20522;-74
2022/07/12 04:55:40;;;;;;;3.20;2.90;;;17.80;99.90;;;;;;6056983;23;20463;-73
2022/07/12 04:58:07;;;;;;;3.67;3.37;;;17.70;99.90;;;;;;6055211;23;20988;-74
2022/07/12 05:00:35;;;;;;;5.53;5.03;;;17.50;99.90;;;;;;6053644;23;20473;-73
2022/07/12 05:03:03;;;;;;;3.67;3.37;;;17.40;99.90;;;;;;6066216;23;20536;-76
2022/07/12 05:05:30;;;;;;;5.60;3.60;;;17.20;99.90;;;;;;6050846;23;20452;-74
2022/07/12 05:07:57;;;;;;;4.03;3.73;;;17.10;99.90;;;;;;6054941;23;20465;-74
2022/07/12 05:10:24;;;;;;;4.07;3.77;;;17.10;99.90;;;;;;6055564;23;20511;-74
2022/07/12 05:12:51;;;;;;;3.90;3.60;;;17.10;99.90;;;;;;6058710;23;20441;-74
2022/07/12 05:15:19;;;;;;;4.40;3.83;;;17.20;99.90;;;;;;6051313;23;20442;-74
2022/07/12 05:17:46;;;;;;;3.73;3.53;;;17.30;99.90;;;;;;6055498;23;20807;-74
2022/07/12 05:20:15;;;;;;;4.17;3.87;;;17.30;99.90;;;;;;6059051;23;20841;-74
2022/07/12 05:22:42;;;;;;;4.07;3.77;;;17.30;99.90;;;;;;6055017;23;20445;-73
2022/07/12 05:25:10;;;;;;;3.80;3.50;;;17.30;99.90;;;;;;6053502;23;20437;-73
2022/07/12 05:27:37;;;;;;;4.17;3.80;;;17.30;99.90;;;;;;6057259;23;20833;-73
2022/07/12 05:30:05;;;;;;;3.53;3.23;;;17.40;99.90;;;;;;6060533;23;21027;-73
2022/07/12 05:32:32;;;;;;;3.60;3.30;;;17.40;99.90;;;;;;6060982;23;20471;-72
2022/07/12 05:34:59;;;;;;;3.40;3.20;;;17.50;99.90;;;;;;6057569;23;20434;-73
2022/07/12 05:37:28;;;;;;;3.83;3.03;;;17.60;99.90;;;;;;6060525;23;20433;-73
2022/07/12 05:39:55;;;;;;;3.30;3.07;;;17.70;99.90;;;;;;6059030;23;20850;-73
2022/07/12 05:42:22;;;;;;;3.23;3.03;;;17.80;99.90;;;;;;6067878;23;20438;-73
2022/07/12 05:44:49;;;;;;;3.27;2.97;;;17.90;99.90;;;;;;6059414;23;20524;-73
2022/07/12 05:47:16;;;;;;;3.80;3.50;;;17.90;99.90;;;;;;6060549;23;20456;-73
2022/07/12 05:49:43;;;;;;;3.40;3.10;;;18.00;99.90;;;;;;6058217;23;20453;-73
2022/07/12 05:54:56;;;;;;;2.83;2.73;;;18.10;99.90;;;;;;6058467;23;20521;-73
2022/07/12 05:57:23;;;;;;;3.17;2.87;;;18.30;99.90;;;;;;6060182;23;20430;-73
2022/07/12 05:59:50;;;;;;;3.40;3.00;;;18.30;99.90;;;;;;6058124;23;20472;-72
2022/07/12 06:02:17;;;;;;;2.83;2.63;;;18.50;99.90;;;;;;6060456;23;20446;-72
2022/07/12 06:04:44;;;;;;;2.83;2.63;;;18.50;99.90;;;;;;6051764;23;20955;-82
2022/07/12 06:07:11;;;;;;;2.17;2.07;;;18.70;99.90;;;;;;6058229;23;20933;-75
2022/07/12 06:09:38;;;;;;;1.83;1.73;;;18.80;99.90;;;;;;6059200;23;20543;-75
2022/07/12 06:12:08;;;;;;;1.90;1.80;;;18.70;99.90;;;;;;6060349;23;21226;-75
2022/07/12 06:14:35;;;;;;;1.57;1.47;;;18.60;99.90;;;;;;6066164;23;20511;-75
2022/07/12 06:17:02;;;;;;;2.40;2.20;;;18.60;99.90;;;;;;6068333;23;20938;-75
2022/07/12 06:19:29;;;;;;;2.30;2.00;;;18.70;99.90;;;;;;6055186;23;20466;-76
2022/07/12 06:21:56;;;;;;;2.37;2.17;;;18.70;99.90;;;;;;6060711;23;20987;-75
2022/07/12 06:24:23;;;;;;;2.53;2.33;;;18.80;99.90;;;;;;6061197;23;20441;-75
2022/07/12 06:26:51;;;;;;;3.00;2.80;;;18.90;99.90;;;;;;6062025;23;20434;-75
2022/07/12 06:29:19;;;;;;;2.80;2.60;;;19.00;99.90;;;;;;6056910;23;20640;-75
2022/07/12 06:31:46;;;;;;;3.10;2.47;;;19.10;99.90;;;;;;6059791;23;20520;-75
2022/07/12 06:34:13;;;;;;;3.33;2.23;;;19.20;99.90;;;;;;6059405;23;20786;-75
2022/07/12 06:36:43;;;;;;;3.00;2.33;;;19.30;99.90;;;;;;6060801;23;20462;-75
2022/07/12 06:39:10;;;;;;;4.43;2.10;;;19.40;99.90;;;;;;6058870;23;20454;-76
2022/07/12 06:41:37;;;;;;;2.00;1.73;;;19.50;99.90;;;;;;6059375;23;20469;-76
2022/07/12 06:44:05;;;;;;;2.40;1.70;;;19.60;99.90;;;;;;6062344;23;20468;-76
2022/07/12 06:46:33;;;;;;;1.83;1.40;;;19.70;99.90;;;;;;6059679;23;20982;-76
2022/07/12 06:49:00;;;;;;;2.00;1.70;;;19.80;99.90;;;;;;6058383;23;20454;-76
2022/07/12 06:51:27;;;;;;;1.87;1.63;;;19.90;99.90;;;;;;6058715;23;20936;-76
2022/07/12 06:53:54;;;;;;;1.67;1.47;;;20.00;99.90;;;;;;6057526;23;20475;-76
2022/07/12 06:56:21;;;;;;;1.77;1.33;;;20.00;99.90;;;;;;6057690;23;20438;-75
2022/07/12 06:58:49;;;;;;;2.20;1.60;;;20.20;99.90;;;;;;6058891;23;20490;-75
2022/07/12 07:01:16;;;;;;;2.00;1.90;;;20.20;99.90;;;;;;6060671;23;20476;-76
2022/07/12 07:03:44;;;;;;;1.60;1.50;;;20.30;99.90;;;;;;6056094;23;20442;-76
2022/07/12 07:06:11;;;;;;;1.53;1.40;;;20.50;99.90;;;;;;6055964;23;20966;-75
2022/07/12 07:08:38;;;;;;;1.80;1.40;;;20.60;99.90;;;;;;6052988;23;20456;-76
2022/07/12 07:11:06;;;;;;;1.20;1.10;;;20.70;99.90;;;;;;6060187;23;20438;-76
2022/07/12 07:13:33;;;;;;;4.90;1.53;;;20.90;99.90;;;;;;6058464;23;20446;-76
2022/07/12 07:16:00;;;;;;;1.33;1.23;;;21.20;99.90;;;;;;6060123;23;20438;-76
2022/07/12 07:18:27;;;;;;;1.10;1.00;;;21.60;99.90;;;;;;6058635;23;20523;-76
2022/07/12 07:20:55;;;;;;;1.43;1.00;;;22.00;99.90;;;;;;6067969;23;20464;-76
2022/07/12 07:23:22;;;;;;;1.20;1.10;;;22.10;99.90;;;;;;6058911;23;20781;-76
2022/07/12 07:25:49;;;;;;;1.60;1.50;;;22.10;99.90;;;;;;6059496;23;20735;-76
2022/07/12 07:28:17;;;;;;;1.00;0.90;;;22.40;99.90;;;;;;6056715;23;20433;-76
2022/07/12 07:30:52;;;;;;;0.90;0.80;;;22.70;99.90;;;;;;6060365;23;20443;-76
2022/07/12 07:33:20;;;;;;;1.00;0.90;;;23.00;99.90;;;;;;6057426;23;20522;-76
2022/07/12 07:35:47;;;;;;;1.00;0.90;;;23.30;99.90;;;;;;6060337;23;20438;-77
2022/07/12 07:38:17;;;;;;;1.40;1.00;;;23.80;99.90;;;;;;6060606;23;20432;-76
2022/07/12 07:40:44;;;;;;;1.67;1.57;;;24.30;99.90;;;;;;6058932;23;20462;-76
2022/07/12 07:43:12;;;;;;;1.97;1.30;;;24.70;99.90;;;;;;6059161;23;20446;-76
2022/07/12 07:45:39;;;;;;;1.83;1.63;;;25.30;99.90;;;;;;6059520;23;20993;-76
2022/07/12 07:48:06;;;;;;;1.50;1.40;;;26.00;99.20;;;;;;6058859;23;20939;-76
2022/07/12 07:50:33;;;;;;;1.73;1.40;;;26.40;97.50;;;;;;6060507;23;20444;-75
2022/07/12 07:53:00;;;;;;;1.73;1.43;;;25.70;97.20;;;;;;6058616;23;20800;-76
2022/07/12 07:55:28;;;;;;;1.60;1.50;;;26.00;97.70;;;;;;6061145;23;20940;-76
2022/07/12 07:57:59;;;;;;;1.27;1.17;;;26.60;96.60;;;;;;6060141;23;20450;-75
2022/07/12 08:00:26;;;;;;;1.70;1.30;;;27.30;94.30;;;;;;6058994;23;20464;-76
2022/07/12 08:02:55;;;;;;;1.63;1.37;;;27.90;93.00;;;;;;6058948;23;20473;-76
2022/07/12 08:05:22;;;;;;;1.30;1.00;;;28.30;92.60;;;;;;6057343;23;20450;-76
2022/07/12 08:07:49;;;;;;;1.30;1.20;;;28.60;89.40;;;;;;6055221;23;20559;-76
2022/07/12 08:10:17;;;;;;;1.20;1.10;;;28.70;89.70;;;;;;6055835;23;20513;-76
2022/07/12 08:12:45;;;;;;;1.00;0.80;;;29.20;87.90;;;;;;6054729;23;20454;-76
2022/07/12 08:15:12;;;;;;;1.73;0.80;;;29.30;83.90;;;;;;6055627;23;20533;-76
2022/07/12 08:17:39;;;;;;;1.43;0.97;;;29.90;83.40;;;;;;6054242;23;20499;-76
2022/07/12 08:20:07;;;;;;;1.83;1.00;;;30.40;79.60;;;;;;6056366;23;20467;-76
2022/07/12 08:22:34;;;;;;;1.27;1.17;;;30.80;79.50;;;;;;6054454;23;20474;-76
2022/07/12 08:25:01;;;;;;;0.80;0.80;;;31.30;75.80;;;;;;6056710;23;20446;-77
2022/07/12 08:27:28;;;;;;;1.00;0.90;;;31.50;74.50;;;;;;6056116;23;20992;-76
2022/07/12 08:29:57;;;;;;;0.73;0.70;;;31.20;72.90;;;;;;6058850;23;20459;-76
2022/07/12 08:32:24;;;;;;;1.20;0.70;;;30.70;74.50;;;;;;6057068;23;20444;-76
2022/07/12 08:34:51;;;;;;;0.70;0.70;;;30.40;73.80;;;;;;6058201;23;20922;-77
2022/07/12 08:37:18;;;;;;;1.60;0.70;;;30.50;72.70;;;;;;6056283;23;20449;-77
2022/07/12 08:39:45;;;;;;;0.80;0.63;;;30.70;71.50;;;;;;6055792;23;20456;-76
2022/07/12 08:42:16;;;;;;;0.87;0.70;;;30.50;72.00;;;;;;6057089;23;20459;-76
2022/07/12 08:44:42;;;;;;;1.00;0.90;;;30.10;72.00;;;;;;6058971;23;20522;-76
2022/07/12 08:47:11;;;;;;;0.90;0.70;;;30.10;72.70;;;;;;6056024;23;20436;-76
2022/07/12 08:50:02;;;;;;;1.00;0.80;;;30.20;70.70;;;;;;6056746;23;20463;-76
2022/07/12 08:52:29;;;;;;;1.30;0.90;;;30.00;72.30;;;;;;6050662;23;20452;-77
2022/07/12 08:54:56;;;;;;;1.37;0.73;;;29.60;73.80;;;;;;6055594;23;20510;-77
2022/07/12 08:57:29;;;;;;;0.70;0.70;;;29.60;72.80;;;;;;6055498;23;20478;-77
2022/07/12 09:00:00;;;;;;;1.20;0.90;;;29.80;73.30;;;;;;6058135;23;20582;-77
2022/07/12 09:02:28;;;;;;;0.93;0.83;;;29.90;70.80;;;;;;6055102;23;20847;-74
2022/07/12 09:05:07;;;;;;;1.10;0.77;;;29.70;72.80;;;;;;6056231;23;20466;-76
2022/07/12 09:07:35;;;;;;;0.87;0.80;;;30.40;71.10;;;;;;6056449;23;20443;-75
2022/07/12 09:10:04;;;;;;;0.80;0.80;;;31.10;70.40;;;;;;6060995;23;20459;-77
2022/07/12 09:12:31;;;;;;;1.40;0.77;;;32.10;68.30;;;;;;6058241;23;20446;-77
2022/07/12 09:15:12;;;;;;;1.93;0.77;;;32.80;65.90;;;;;;6055883;23;20447;-74
2022/07/12 09:17:40;;;;;;;0.90;0.60;;;33.50;63.70;;;;;;6059749;23;20764;-74
2022/07/12 09:20:11;;;;;;;0.70;0.60;;;33.20;61.80;;;;;;6056953;23;20456;-74
2022/07/12 09:22:38;;;;;;;1.87;0.90;;;33.70;62.50;;;;;;6059285;23;20535;-74
2022/07/12 09:25:17;;;;;;;1.50;0.80;;;34.40;61.60;;;;;;6054523;23;20922;-74
2022/07/12 09:27:50;;;;;;;3.30;0.80;;;35.00;59.60;;;;;;6058158;23;20439;-73
2022/07/12 09:30:17;;;;;;;0.70;0.60;;;35.20;57.10;;;;;;6059712;23;20467;-73
2022/07/12 09:38:30;;;;;;;1.33;0.67;;;35.30;57.20;;;;;;6058824;23;20537;-75
2022/07/12 09:40:58;;;;;;;0.80;0.70;;;35.40;55.50;;;;;;6054190;23;20434;-74
2022/07/12 09:43:26;;;;;;;0.70;0.60;;;35.60;55.40;;;;;;6056268;23;20448;-74
2022/07/12 09:45:54;;;;;;;1.00;0.90;;;35.10;55.30;;;;;;6057407;23;20897;-76
2022/07/12 09:48:22;;;;;;;1.20;1.10;;;35.40;55.60;;;;;;6055089;23;20823;-75
2022/07/12 09:50:51;;;;;;;1.13;1.00;;;35.30;54.40;;;;;;6059319;23;20438;-74
2022/07/12 09:53:22;;;;;;;0.80;0.77;;;35.60;53.70;;;;;;6056299;23;20463;-74
2022/07/12 09:55:54;;;;;;;1.10;0.80;;;34.00;55.00;;;;;;6051800;23;20433;-74
2022/07/12 09:58:26;;;;;;;1.40;1.00;;;33.50;56.40;;;;;;6057755;23;20978;-77
2022/07/12 10:00:54;;;;;;;0.80;0.80;;;33.60;55.90;;;;;;6054770;23;20432;-74
2022/07/12 10:03:24;;;;;;;1.00;0.90;;;33.30;56.20;;;;;;6059567;23;20474;-74
2022/07/12 10:05:56;;;;;;;2.30;0.90;;;33.40;56.20;;;;;;6054550;23;20506;-74
2022/07/12 10:08:23;;;;;;;0.97;0.70;;;33.80;56.80;;;;;;6054729;23;20982;-74
2022/07/12 10:10:50;;;;;;;0.80;0.73;;;34.10;54.90;;;;;;6053768;23;20433;-74
2022/07/12 10:13:20;;;;;;;0.90;0.80;;;34.40;55.40;;;;;;6058317;23;20780;-74
2022/07/12 10:15:49;;;;;;;0.90;0.80;;;34.60;54.10;;;;;;6055149;23;20442;-74
2022/07/12 10:18:19;;;;;;;0.93;0.80;;;34.80;54.80;;;;;;6057827;23;20530;-74
2022/07/12 10:20:48;;;;;;;0.70;0.70;;;35.00;54.20;;;;;;6055493;23;20436;-74
2022/07/12 10:23:36;;;;;;;1.43;0.60;;;35.00;54.50;;;;;;6056446;23;20471;-74
2022/07/12 10:26:25;;;;;;;1.93;0.80;;;35.20;54.00;;;;;;6067694;23;20942;-74
2022/07/12 10:28:59;;;;;;;0.70;0.63;;;35.60;53.00;;;;;;6061645;23;20462;-74
2022/07/12 10:31:30;;;;;;;1.43;0.70;;;36.00;51.80;;;;;;6055015;23;20444;-74
2022/07/12 10:34:13;;;;;;;0.70;0.60;;;35.30;52.10;;;;;;6056070;23;20450;-74
2022/07/12 10:37:13;;;;;;;0.80;0.80;;;34.40;53.30;;;;;;6055058;23;20440;-74
2022/07/12 10:39:41;;;;;;;1.00;0.90;;;33.20;54.30;;;;;;6055652;23;20463;-74
2022/07/12 10:42:15;;;;;;;0.70;0.60;;;32.90;55.70;;;;;;6055690;23;20811;-74
2022/07/12 10:44:46;;;;;;;0.97;0.60;;;32.80;54.60;;;;;;6055058;23;20436;-74
2022/07/12 10:47:14;;;;;;;1.23;0.73;;;32.40;54.50;;;;;;6057887;23;20517;-74
2022/07/12 10:49:48;;;;;;;0.90;0.70;;;32.30;55.40;;;;;;6058969;23;20461;-74
2022/07/12 10:52:27;;;;;;;0.70;0.70;;;32.50;57.00;;;;;;6058905;23;20435;-74
2022/07/12 10:55:17;;;;;;;1.37;0.80;;;33.30;56.00;;;;;;6053789;23;20963;-74
2022/07/12 10:57:46;;;;;;;0.70;0.70;;;33.90;54.20;;;;;;6056655;23;20955;-74
2022/07/12 11:00:15;;;;;;;1.73;0.70;;;34.00;53.60;;;;;;6057828;23;20486;-74
2022/07/12 11:02:43;;;;;;;0.80;0.70;;;34.00;54.40;;;;;;6058030;23;20486;-74
2022/07/12 11:05:10;;;;;;;0.87;0.87;;;34.00;54.40;;;;;;6056664;23;20444;-75
2022/07/12 11:07:39;;;;;;;0.70;0.70;;;33.90;54.30;;;;;;6055749;23;20467;-75
2022/07/12 11:10:07;;;;;;;0.80;0.70;;;34.10;54.00;;;;;;6051246;23;20476;-75
2022/07/12 11:12:34;;;;;;;1.07;0.80;;;34.50;53.00;;;;;;6052308;23;20435;-75
2022/07/12 11:15:02;;;;;;;1.10;0.80;;;34.40;53.50;;;;;;6055149;23;20437;-75
2022/07/12 11:17:30;;;;;;;0.80;0.60;;;34.60;52.80;;;;;;6054682;23;20563;-74
2022/07/12 11:20:10;;;;;;;0.70;0.63;;;34.60;52.10;;;;;;6057333;23;20436;-75
2022/07/12 11:22:40;;;;;;;0.87;0.67;;;34.60;53.50;;;;;;6058081;23;20990;-75
2022/07/12 11:25:10;;;;;;;0.97;0.63;;;34.70;53.80;;;;;;6055713;23;20962;-75
2022/07/12 11:27:37;;;;;;;0.80;0.70;;;33.30;54.10;;;;;;6058469;23;20444;-74
2022/07/12 11:30:05;;;;;;;0.90;0.70;;;32.30;55.10;;;;;;6059860;23;20444;-74
2022/07/12 11:32:40;;;;;;;0.70;0.70;;;31.90;56.10;;;;;;6058816;23;20468;-75
2022/07/12 11:35:20;;;;;;;0.80;0.63;;;31.30;56.40;;;;;;6057956;23;20435;-75
2022/07/12 11:37:54;;;;;;;0.80;0.70;;;31.50;56.60;;;;;;6059556;23;20481;-73
2022/07/12 11:40:28;;;;;;;1.03;0.70;;;31.10;58.30;;;;;;6056955;23;20522;-75
2022/07/12 11:42:58;;;;;;;1.37;0.70;;;31.60;58.30;;;;;;6056383;23;20471;-75
2022/07/12 11:45:26;;;;;;;0.70;0.60;;;32.20;57.00;;;;;;6053203;23;20460;-75
2022/07/12 11:47:53;;;;;;;0.90;0.60;;;32.70;55.70;;;;;;6057752;23;20561;-73
2022/07/12 11:50:21;;;;;;;3.40;0.80;;;33.10;54.90;;;;;;6056554;23;20439;-75
2022/07/12 11:52:48;;;;;;;0.80;0.60;;;33.30;53.20;;;;;;6058012;23;20432;-75
2022/07/12 11:55:16;;;;;;;0.70;0.67;;;32.70;53.80;;;;;;6054860;23;20467;-75
2022/07/12 11:57:44;;;;;;;0.93;0.60;;;32.40;55.70;;;;;;6055042;23;20456;-75
2022/07/12 12:00:16;;;;;;;2.00;0.80;;;32.50;55.20;;;;;;6062648;23;20464;-75
2022/07/12 12:02:43;;;;;;;0.90;0.70;;;32.50;54.90;;;;;;6057736;23;20464;-74
2022/07/12 12:05:11;;;;;;;1.30;0.70;;;32.30;56.10;;;;;;6055946;23;20473;-74
2022/07/12 12:07:38;;;;;;;0.90;0.70;;;32.60;56.30;;;;;;6056446;23;20483;-74
2022/07/12 12:10:06;;;;;;;0.77;0.60;;;33.10;55.60;;;;;;6055147;23;20436;-75
2022/07/12 12:12:39;;;;;;;2.63;0.80;;;33.20;54.70;;;;;;6057262;23;20432;-75
2022/07/12 12:15:08;;;;;;;0.77;0.70;;;33.30;54.60;;;;;;6058851;23;20439;-75
2022/07/12 12:17:36;;;;;;;0.70;0.70;;;33.00;55.30;;;;;;6064540;23;20478;-75
2022/07/12 12:20:14;;;;;;;0.87;0.70;;;33.10;55.30;;;;;;6051688;23;20440;-74
2022/07/12 12:22:43;;;;;;;0.73;0.73;;;33.30;54.90;;;;;;6053774;23;20472;-76
2022/07/12 12:25:13;;;;;;;1.17;0.60;;;33.40;55.00;;;;;;6057237;23;20438;-74
2022/07/12 12:27:46;;;;;;;0.87;0.77;;;33.50;54.10;;;;;;6057134;23;21715;-76
2022/07/12 12:30:14;;;;;;;1.10;0.90;;;33.80;54.50;;;;;;6059156;23;20822;-77
2022/07/12 12:32:48;;;;;;;1.90;0.70;;;34.20;52.80;;;;;;6056292;23;20439;-77
2022/07/12 12:35:17;;;;;;;1.23;0.60;;;34.40;53.40;;;;;;6059886;23;20426;-77
2022/07/12 12:37:56;;;;;;;1.43;0.60;;;34.40;54.10;;;;;;6042606;23;20991;-78
2022/07/12 12:40:25;;;;;;;1.97;0.70;;;34.70;53.70;;;;;;6058359;23;20793;-89
2022/07/12 15:47:10;;;;;;;9.53;1.17;;;43.70;31.70;;;;;;6142006;23;20706;-80
2022/07/12 15:49:38;;;;;;;0.90;0.80;;;43.20;32.20;;;;;;6122451;23;20458;-86
2022/07/12 15:54:50;;;;;;;2.40;0.80;;;43.70;32.10;;;;;;6109669;23;20431;-82
2022/07/12 15:57:17;;;;;;;0.70;0.70;;;43.70;31.60;;;;;;6119325;23;20456;-82
2022/07/12 15:59:44;;;;;;;0.80;0.70;;;42.80;31.20;;;;;;6128727;23;20508;-86
2022/07/12 16:02:13;;;;;;;1.57;0.70;;;41.00;33.00;;;;;;6127337;23;20436;-86
2022/07/12 16:04:40;;;;;;;0.70;0.60;;;39.50;34.10;;;;;;6120355;23;20613;-86
2022/07/12 16:07:09;;;;;;;1.73;0.90;;;38.50;35.40;;;;;;6125146;23;21024;-86
2022/07/12 16:09:36;;;;;;;1.27;0.70;;;37.40;36.40;;;;;;6122325;23;20496;-86
2022/07/12 16:12:03;;;;;;;0.80;0.70;;;36.20;37.80;;;;;;6119781;23;20433;-81
2022/07/12 16:14:30;;;;;;;1.10;0.73;;;35.20;38.50;;;;;;6121450;23;20501;-86